Portada
METAR-TAF:

METAR-TAF

Aeroports :

Keetmanshoop, Namíbia

latitud: 26-32S, longitud: 018-07E, altitud: 1067 m

Observació

L'informe es va fer fa 40 minuts, a les 01:00 UTC
Vent calma
Temperatura 10°C
Humitat 62%
Pressió 1021 hPa

METAR: FYKT 180100Z AUTO 00000KT //// // ////// 10/03 Q1021

Hora: 03:40 (01:40 UTC)

Pronòstic

L'informe es va fer fa 9 hores i 56 minuts, a les 15:44 UTC
Pronòstic vàlid del 17 a les 18 UTC al 18 a les 18 UTC
Vent 9 kt del Oest/Sud-Oest
Visibilitat 10 km o més
sense núvols per sota de 1500 mi sense presència de cumulonimbus.

TAF: FYKT 171544Z 1718/1818 24009KT CAVOK

Observacions i pronòstics meteorològics de més de 4000 aeroports (METAR i TAF).

Les estacions disponibles són els punts grocs i vermells al mapa.

Posi el ratolí al punt desitjat per veure el nom de l'estació.

Feu clic per veure les observacions i els pronòstics meteorològics.

Per canviar el mapa: feu clic els botons verds amb una creu de color negre per apropar; al botó verd amb un guió per allunyar la imatge; o en les fletxes verdes per a mapes adjacents.


METAR-TAF: